Time;durP1;ratioP1;P1;durP2;ratioP2;P2;SDS_P1;SDS_P2;PMS_P1;PMS_P2;Temp;Humidity;BMP_temperature;BMP_pressure;BME280_temperature;BME280_humidity;BME280_pressure;Samples;Min_cycle;Max_cycle;Signal;HPM_P1;HPM_P2
2022/06/24 00:00:01;;;;;;;8.73;7.97;;;;;;;21.34;49.26;100043.28;5000753;28;101405;-78
2022/06/24 00:02:26;;;;;;;9.60;7.85;;;;;;;21.58;49.28;100085.81;4996791;28;96793;-77
2022/06/24 00:04:58;;;;;;;8.32;7.68;;;;;;;21.62;48.98;100060.56;5012520;28;97181;-77
2022/06/24 00:07:23;;;;;;;;;;;;;;;21.48;49.69;100083.06;5010836;28;101480;-78
2022/06/24 00:09:49;;;;;;;8.50;7.78;;;;;;;21.34;50.02;100079.81;5002140;28;100924;-77
2022/06/24 00:12:21;;;;;;;8.68;8.02;;;;;;;21.32;50.00;100079.09;5013498;28;97390;-82
2022/06/24 00:14:57;;;;;;;8.20;7.50;;;;;;;21.37;50.08;100074.25;4996516;28;96928;-77
2022/06/24 00:17:27;;;;;;;8.88;8.07;;;;;;;21.39;50.09;100086.50;5012842;28;101285;-77
2022/06/24 00:19:52;;;;;;;8.82;7.53;;;;;;;21.48;49.76;100084.91;4995975;28;102007;-77
2022/06/24 00:22:18;;;;;;;7.95;7.25;;;;;;;21.36;49.99;100084.09;5030275;28;96841;-79
2022/06/24 00:24:43;;;;;;;8.60;7.80;;;;;;;21.27;50.44;100094.66;5024808;28;97725;-77
2022/06/24 00:27:23;;;;;;;9.65;7.85;;;;;;;21.24;50.32;100087.75;4996315;28;100810;-77
2022/06/24 00:29:49;;;;;;;8.30;7.50;;;;;;;21.17;50.53;100083.88;4996092;28;101350;-78
2022/06/24 00:32:15;;;;;;;9.50;8.55;;;;;;;20.97;51.05;100073.03;4996985;28;97339;-81
2022/06/24 00:34:41;;;;;;;10.55;7.90;;;;;;;20.99;51.18;100084.41;4994780;28;96871;-78
2022/06/24 00:37:28;;;;;;;9.32;7.72;;;;;;;20.98;51.27;100076.53;5010931;28;101318;-76
2022/06/24 00:39:56;;;;;;;9.57;8.77;;;;;;;21.05;50.67;100072.38;5003407;28;97936;-77
2022/06/24 00:42:22;;;;;;;9.18;8.48;;;;;;;20.98;50.84;100071.22;4993775;28;97568;-78
2022/06/24 00:44:59;;;;;;;8.70;8.10;;;;;;;20.93;51.25;100076.06;5006936;28;96950;-77
2022/06/24 00:47:24;;;;;;;8.63;8.00;;;;;;;20.89;51.06;100072.81;5009480;28;97847;-77
2022/06/24 00:49:52;;;;;;;9.48;8.55;;;;;;;20.83;51.26;100070.63;4989169;28;101077;-80
2022/06/24 00:52:18;;;;;;;9.65;8.25;;;;;;;20.83;51.47;100067.09;4998152;28;96857;-82
2022/06/24 00:54:43;;;;;;;8.60;8.00;;;;;;;20.74;51.65;100064.22;5009835;28;96914;-77
2022/06/24 00:57:09;;;;;;;9.25;8.45;;;;;;;20.72;51.80;100066.16;4996368;28;100539;-77
2022/06/24 00:59:35;;;;;;;9.38;8.65;;;;;;;20.67;51.80;100054.16;4994341;28;101641;-76
2022/06/24 01:02:04;;;;;;;8.43;7.82;;;;;;;20.72;51.83;100073.31;4994581;28;96826;-77
2022/06/24 01:04:31;;;;;;;8.70;7.90;;;;;;;20.73;51.61;100051.84;4995131;28;97191;-77
2022/06/24 01:06:58;;;;;;;9.88;8.98;;;;;;;20.61;51.91;100044.00;4982271;28;101422;-77
2022/06/24 01:09:23;;;;;;;9.25;8.20;;;;;;;20.64;51.98;100065.91;4994766;28;101165;-77
2022/06/24 01:11:48;;;;;;;9.27;8.48;;;;;;;20.73;51.79;100053.66;4982789;28;96864;-77
2022/06/24 01:14:14;;;;;;;8.77;7.93;;;;;;;20.63;52.08;100066.06;5003731;28;97717;-77
2022/06/24 01:16:40;;;;;;;9.93;8.30;;;;;;;20.70;51.95;100061.91;5000984;28;99129;-80
2022/06/24 01:19:08;;;;;;;9.07;8.38;;;;;;;20.60;52.26;100058.31;5015503;28;97845;-77
2022/06/24 01:21:41;;;;;;;9.13;8.35;;;;;;;20.60;52.10;100050.31;5008975;28;97613;-76
2022/06/24 01:24:09;;;;;;;8.98;8.13;;;;;;;20.42;52.47;100033.91;4993319;28;96888;-77
2022/06/24 01:27:01;;;;;;;8.48;7.90;;;;;;;20.58;52.25;100053.06;5026255;28;101729;-77
2022/06/24 01:29:27;;;;;;;9.48;8.55;;;;;;;20.40;52.59;100031.38;4995209;28;101590;-77
2022/06/24 01:31:53;;;;;;;9.05;8.35;;;;;;;20.48;52.61;100050.28;4998019;28;97180;-77
2022/06/24 01:34:21;;;;;;;9.52;8.75;;;;;;;20.39;52.74;100048.34;5030008;28;96946;-81
2022/06/24 01:36:46;;;;;;;8.95;8.20;;;;;;;20.34;52.95;100048.69;5001842;28;101588;-76
2022/06/24 01:39:12;;;;;;;9.25;8.25;;;;;;;20.43;52.77;100059.59;5007721;28;97833;-77
2022/06/24 01:41:38;;;;;;;9.13;8.23;;;;;;;20.32;52.90;100049.78;5013602;28;96850;-77
2022/06/24 01:44:03;;;;;;;8.65;8.02;;;;;;;20.23;52.83;100027.38;5015084;28;96963;-77
2022/06/24 01:46:29;;;;;;;10.02;9.20;;;;;;;20.36;52.93;100059.22;4992392;28;101074;-80
2022/06/24 01:48:55;;;;;;;10.07;9.25;;;;;;;20.08;53.28;100017.94;5011118;28;102076;-76
2022/06/24 01:51:22;;;;;;;8.90;8.10;;;;;;;20.26;52.99;100043.13;5015158;28;97063;-80
2022/06/24 01:53:47;;;;;;;9.32;8.50;;;;;;;20.20;53.38;100042.75;5008406;28;96875;-77
2022/06/24 01:56:13;;;;;;;9.55;8.60;;;;;;;20.07;53.52;100030.41;4998649;28;101190;-77
2022/06/24 01:58:39;;;;;;;9.02;8.23;;;;;;;20.02;53.82;100031.72;5011654;28;101196;-77
2022/06/24 02:01:04;;;;;;;9.57;8.65;;;;;;;20.13;53.75;100034.41;5005079;28;96775;-77
2022/06/24 02:03:32;;;;;;;9.73;8.70;;;;;;;20.08;53.55;100028.59;5010166;28;97530;-77
2022/06/24 02:06:02;;;;;;;9.65;8.75;;;;;;;19.94;53.58;100023.47;4986892;28;101562;-76
2022/06/24 02:08:27;;;;;;;13.83;8.50;;;;;;;20.01;54.24;100040.66;4990784;28;101018;-77
2022/06/24 02:13:37;;;;;;;10.43;9.48;;;;;;;19.99;53.94;100048.81;5032524;28;96749;-77
2022/06/24 02:16:04;;;;;;;10.32;9.35;;;;;;;20.00;54.01;100044.31;5010031;28;98184;-77
2022/06/24 02:18:31;;;;;;;10.90;8.80;;;;;;;20.00;53.96;100047.81;4992839;28;101728;-79
2022/06/24 02:20:58;;;;;;;9.48;8.77;;;;;;;19.86;54.32;100038.22;4996397;28;96858;-77
2022/06/24 02:23:23;;;;;;;9.38;8.57;;;;;;;19.77;54.37;100019.47;4997497;28;96868;-77
2022/06/24 02:25:50;;;;;;;10.00;9.00;;;;;;;19.91;54.07;100045.88;4988833;28;101464;-77
2022/06/24 02:28:16;;;;;;;9.75;8.90;;;;;;;19.93;54.02;100024.47;5015017;28;101391;-78
2022/06/24 02:30:42;;;;;;;10.93;8.70;;;;;;;19.82;54.44;100025.28;4997936;28;96955;-77
2022/06/24 02:33:08;;;;;;;9.00;8.27;;;;;;;19.79;54.44;100034.34;5015590;28;96959;-76
2022/06/24 02:35:34;;;;;;;11.25;8.07;;;;;;;19.87;54.26;100034.63;4990335;28;101077;-77
2022/06/24 02:38:00;;;;;;;11.10;9.93;;;;;;;19.82;54.34;100035.94;4996752;28;101196;-76
2022/06/24 02:43:17;;;;;;;9.90;9.00;;;;;;;19.72;54.45;100032.28;5016749;28;97235;-78
2022/06/24 02:45:50;;;;;;;9.30;8.60;;;;;;;19.85;53.76;100033.88;4993522;28;102383;-76
2022/06/24 02:48:17;;;;;;;10.00;9.05;;;;;;;19.66;54.52;100026.47;5016709;28;101250;-77
2022/06/24 02:50:44;;;;;;;9.48;8.43;;;;;;;19.58;54.68;100028.84;5010904;28;97107;-76
2022/06/24 02:53:10;;;;;;;10.07;9.18;;;;;;;19.71;54.28;100028.75;4994366;28;97303;-80
2022/06/24 02:55:36;;;;;;;10.40;9.13;;;;;;;19.77;54.46;100041.59;5028056;28;97487;-76
2022/06/24 02:58:02;;;;;;;10.52;9.43;;;;;;;19.63;54.77;100017.81;5011556;28;97366;-76
2022/06/24 03:00:28;;;;;;;9.98;9.00;;;;;;;19.61;54.56;100025.94;4991100;28;98131;-80
2022/06/24 03:02:54;;;;;;;12.98;10.00;;;;;;;19.56;54.68;100020.09;5015404;28;96956;-81
2022/06/24 03:05:19;;;;;;;10.05;9.25;;;;;;;19.65;54.69;100029.22;4996933;28;101256;-77
2022/06/24 03:07:45;;;;;;;10.38;8.75;;;;;;;19.59;54.81;100027.00;5003096;28;101791;-76
2022/06/24 03:10:10;;;;;;;10.65;9.52;;;;;;;19.75;54.52;100022.25;4984003;28;97254;-78
2022/06/24 03:12:36;;;;;;;11.70;9.15;;;;;;;19.63;54.87;100032.00;4993242;28;97313;-78
2022/06/24 03:15:01;;;;;;;9.73;8.80;;;;;;;19.69;54.61;100030.69;4999671;28;101738;-77
2022/06/24 03:17:27;;;;;;;10.73;9.25;;;;;;;19.66;54.77;100026.47;5008977;28;101178;-77
2022/06/24 03:19:52;;;;;;;10.93;9.93;;;;;;;19.74;54.81;100035.66;4997099;28;97061;-77
2022/06/24 03:22:18;;;;;;;11.20;9.35;;;;;;;19.73;54.60;100018.84;5029266;28;96907;-77
2022/06/24 03:24:43;;;;;;;11.30;10.30;;;;;;;19.70;54.89;100031.56;4995543;28;100900;-77
2022/06/24 03:27:09;;;;;;;10.85;9.95;;;;;;;19.56;54.69;100005.94;4998246;28;102014;-77
2022/06/24 03:29:34;;;;;;;10.88;9.85;;;;;;;19.73;54.92;100039.31;5009835;28;97279;-76
2022/06/24 03:32:00;;;;;;;10.57;9.48;;;;;;;19.81;54.44;100037.75;5015158;28;97380;-77
2022/06/24 03:34:25;;;;;;;11.90;10.10;;;;;;;19.80;54.29;100033.38;5009537;28;101199;-77
2022/06/24 03:36:51;;;;;;;11.43;10.30;;;;;;;19.77;54.36;100014.97;5029496;28;97305;-77
2022/06/24 03:39:16;;;;;;;11.32;9.63;;;;;;;19.82;54.68;100033.28;4993087;28;97228;-77
2022/06/24 03:41:42;;;;;;;10.38;9.48;;;;;;;19.82;54.53;100031.44;5006725;28;97640;-77
2022/06/24 03:44:08;;;;;;;9.95;9.15;;;;;;;19.92;54.51;100028.06;5009542;28;97511;-78
2022/06/24 03:46:33;;;;;;;11.70;10.52;;;;;;;19.95;54.44;100030.50;4993311;28;101334;-76
2022/06/24 03:48:59;;;;;;;10.77;9.90;;;;;;;20.08;54.21;100034.75;4996782;28;97290;-76
2022/06/24 03:51:24;;;;;;;10.73;9.65;;;;;;;20.20;53.70;100034.78;4996978;28;97693;-82
2022/06/24 03:53:50;;;;;;;11.20;10.13;;;;;;;20.20;53.94;100040.94;4996433;28;101241;-76
2022/06/24 03:56:15;;;;;;;10.88;9.75;;;;;;;20.29;53.59;100034.88;5011435;28;97814;-77
2022/06/24 03:58:41;;;;;;;11.00;9.98;;;;;;;20.33;53.86;100036.34;4993778;28;97742;-77
2022/06/24 04:01:06;;;;;;;12.38;9.93;;;;;;;20.35;53.10;100023.72;5003231;28;97622;-77
2022/06/24 04:03:32;;;;;;;10.98;9.98;;;;;;;20.27;53.18;100007.50;4992473;28;100620;-77
2022/06/24 04:05:57;;;;;;;14.43;10.35;;;;;;;20.24;53.35;100020.22;4994440;28;101405;-77
2022/06/24 04:08:23;;;;;;;11.35;10.50;;;;;;;20.30;53.62;100041.06;4987789;28;96825;-77
2022/06/24 04:10:48;;;;;;;11.05;10.05;;;;;;;20.24;53.45;100033.53;5005985;28;97573;-78
2022/06/24 04:13:14;;;;;;;13.02;10.45;;;;;;;20.37;53.12;100031.63;5005622;28;97511;-77
2022/06/24 04:15:46;;;;;;;11.55;10.52;;;;;;;20.39;53.35;100034.16;4988899;28;101173;-77
2022/06/24 04:18:12;;;;;;;13.90;10.05;;;;;;;20.56;52.80;100029.19;4993038;28;97044;-77
2022/06/24 04:20:37;;;;;;;12.82;10.05;;;;;;;20.65;52.83;100040.94;5013037;28;96915;-77
2022/06/24 04:23:03;;;;;;;16.35;10.98;;;;;;;20.69;52.49;100028.22;5012412;28;98173;-77
2022/06/24 04:25:29;;;;;;;11.13;9.95;;;;;;;20.71;52.16;100043.13;5012023;28;97435;-77
2022/06/24 04:27:54;;;;;;;11.52;10.43;;;;;;;20.72;52.39;100047.50;4990314;28;97366;-77
2022/06/24 04:30:20;;;;;;;11.95;10.52;;;;;;;20.67;52.42;100044.34;5013237;28;96939;-77
2022/06/24 04:32:45;;;;;;;12.80;11.20;;;;;;;20.75;52.25;100033.91;4995563;28;101694;-78
2022/06/24 04:35:11;;;;;;;14.77;11.13;;;;;;;20.95;52.07;100040.28;4996230;28;101282;-78
2022/06/24 04:37:40;;;;;;;13.57;11.10;;;;;;;21.04;51.87;100052.03;5012273;28;97436;-78
2022/06/24 04:40:07;;;;;;;13.32;10.88;;;;;;;21.05;51.84;100047.53;5000976;28;97411;-77
2022/06/24 04:42:33;;;;;;;11.52;9.88;;;;;;;21.04;51.79;100044.03;4990930;28;99937;-81
2022/06/24 04:44:58;;;;;;;11.60;10.55;;;;;;;21.07;51.93;100025.09;5001428;28;101126;-77
2022/06/24 04:47:24;;;;;;;11.35;10.25;;;;;;;21.13;51.84;100045.94;5002564;28;96966;-83
2022/06/24 04:49:50;;;;;;;10.82;9.63;;;;;;;21.16;51.96;100047.50;5006705;28;97364;-77
2022/06/24 04:52:18;;;;;;;11.00;10.00;;;;;;;21.35;51.42;100046.81;5008301;28;101068;-76
2022/06/24 04:54:44;;;;;;;10.95;9.88;;;;;;;21.42;51.19;100018.66;5010890;28;97429;-77
2022/06/24 04:57:11;;;;;;;11.88;10.52;;;;;;;21.72;50.91;100036.56;5012286;28;97191;-78
2022/06/24 04:59:36;;;;;;;12.20;10.23;;;;;;;21.73;50.53;100032.94;5008914;28;97347;-76
2022/06/24 05:02:02;;;;;;;11.10;10.00;;;;;;;21.88;50.29;100033.47;5010487;28;101184;-77
2022/06/24 05:04:27;;;;;;;11.68;10.57;;;;;;;21.79;50.09;100039.59;4993918;28;101002;-77
2022/06/24 05:06:53;;;;;;;15.77;10.25;;;;;;;21.78;50.19;100040.56;5011340;28;96907;-77
2022/06/24 05:09:18;;;;;;;12.18;10.35;;;;;;;22.08;49.33;100037.94;4993201;28;97139;-77
2022/06/24 05:11:45;;;;;;;11.13;10.02;;;;;;;22.17;48.98;100030.09;4992939;28;101852;-77
2022/06/24 05:14:11;;;;;;;11.70;9.95;;;;;;;22.34;48.37;100025.00;5005356;28;101668;-79
2022/06/24 05:16:37;;;;;;;11.18;10.15;;;;;;;22.44;48.19;100033.03;5007022;28;97588;-78
2022/06/24 05:19:02;;;;;;;13.70;10.73;;;;;;;22.46;47.70;100004.34;5011427;28;96920;-76
2022/06/24 05:21:28;;;;;;;12.88;10.05;;;;;;;22.57;47.73;100020.28;5010269;28;101684;-77
2022/06/24 05:23:54;;;;;;;15.55;10.52;;;;;;;22.45;47.80;100025.88;5005872;28;101462;-78
2022/06/24 05:26:20;;;;;;;24.02;11.20;;;;;;;22.56;47.67;100021.25;5012903;28;97302;-77
2022/06/24 05:28:46;;;;;;;12.18;10.50;;;;;;;22.69;47.27;100002.31;5009322;28;97106;-81
2022/06/24 05:31:12;;;;;;;14.52;11.10;;;;;;;23.13;46.99;100016.19;5006226;28;98066;-77
2022/06/24 05:33:37;;;;;;;16.00;10.20;;;;;;;23.49;46.51;100019.97;5002181;28;100972;-77
2022/06/24 05:36:03;;;;;;;15.88;9.85;;;;;;;23.64;46.20;100009.66;5012941;28;97189;-77
2022/06/24 05:38:29;;;;;;;14.90;10.98;;;;;;;23.73;45.21;100014.16;4994983;28;97078;-78
2022/06/24 05:40:54;;;;;;;13.02;10.20;;;;;;;23.98;45.03;100024.44;4992231;28;101286;-78
2022/06/24 05:43:20;;;;;;;12.75;11.02;;;;;;;24.25;44.16;100021.78;5000525;28;100859;-79
2022/06/24 05:45:46;;;;;;;12.05;10.85;;;;;;;24.58;43.84;100031.13;5003730;28;96978;-79
2022/06/24 05:48:16;;;;;;;11.60;10.45;;;;;;;24.86;43.10;100025.72;4991456;28;97646;-78
2022/06/24 05:50:42;;;;;;;15.07;10.82;;;;;;;25.11;42.44;100028.69;5009113;28;97395;-78
2022/06/24 05:55:58;;;;;;;14.15;11.25;;;;;;;26.45;40.00;100021.28;4999545;28;97000;-85
2022/06/24 05:58:28;;;;;;;12.40;11.15;;;;;;;27.03;38.68;100018.59;5007495;28;97320;-85
2022/06/24 06:00:54;;;;;;;12.43;10.93;;;;;;;27.72;37.83;100015.59;4993741;28;101682;-84
2022/06/24 06:03:24;;;;;;;11.30;10.20;;;;;;;28.66;36.46;100019.44;4997389;28;101118;-83
2022/06/24 06:05:50;;;;;;;11.53;10.33;;;;;;;29.76;35.50;100005.66;5015012;28;97369;-83
2022/06/24 06:08:16;;;;;;;11.07;10.18;;;;;;;30.47;33.88;99994.38;4998461;28;96908;-83
2022/06/24 06:10:43;;;;;;;11.57;10.38;;;;;;;31.11;32.27;99989.06;4997300;28;101046;-83
2022/06/24 06:13:10;;;;;;;11.35;10.20;;;;;;;32.06;31.07;99997.78;5013600;28;97348;-83
2022/06/24 06:15:35;;;;;;;12.63;10.30;;;;;;;32.47;30.31;99992.41;5009805;28;97041;-83
2022/06/24 06:18:01;;;;;;;10.93;9.90;;;;;;;32.62;30.13;99987.66;5011413;28;99813;-83
2022/06/24 06:20:27;;;;;;;10.60;9.75;;;;;;;33.24;29.25;99982.97;5013807;28;97857;-84
2022/06/24 06:22:52;;;;;;;11.55;10.35;;;;;;;33.68;28.31;99992.41;5031129;28;97291;-83
2022/06/24 06:25:18;;;;;;;10.52;9.55;;;;;;;34.28;27.18;99986.03;5015110;28;97238;-83
2022/06/24 06:27:44;;;;;;;13.05;10.32;;;;;;;34.61;27.42;99972.28;5017789;28;97194;-83
2022/06/24 06:30:10;;;;;;;10.90;9.90;;;;;;;35.48;26.18;99980.72;5004571;28;101357;-82
2022/06/24 06:32:35;;;;;;;11.85;9.70;;;;;;;34.76;26.78;99991.06;5008697;28;101594;-83
2022/06/24 06:35:02;;;;;;;10.95;9.98;;;;;;;35.14;26.04;99993.78;4994764;28;98245;-84
2022/06/24 06:37:28;;;;;;;10.38;9.48;;;;;;;35.43;26.09;99983.28;5009553;28;97347;-82
2022/06/24 06:39:54;;;;;;;10.95;9.95;;;;;;;35.85;25.59;99970.75;5017558;28;97992;-82
2022/06/24 06:42:19;;;;;;;10.57;9.70;;;;;;;36.04;25.28;99966.13;5013230;28;97908;-82
2022/06/24 06:44:45;;;;;;;11.68;10.40;;;;;;;35.94;25.54;99963.91;4996777;28;97283;-83
2022/06/24 06:47:10;;;;;;;11.18;10.27;;;;;;;36.44;24.91;99960.19;5014514;28;97329;-85
2022/06/24 06:49:36;;;;;;;12.35;11.00;;;;;;;36.62;25.15;99959.34;4995048;28;101330;-85
2022/06/24 06:52:02;;;;;;;11.80;10.55;;;;;;;37.57;23.99;99962.09;4997525;28;101068;-88
2022/06/24 06:54:29;;;;;;;11.60;10.52;;;;;;;37.91;23.59;99950.53;4993526;28;96946;-85
2022/06/24 06:56:58;;;;;;;11.77;10.27;;;;;;;37.81;23.46;99951.13;5007895;28;97382;-82
2022/06/24 06:59:25;;;;;;;12.67;10.33;;;;;;;38.18;23.10;99950.84;5017936;28;97535;-83
2022/06/24 07:01:50;;;;;;;11.70;10.57;;;;;;;37.77;23.17;99949.94;5004017;28;99248;-83
2022/06/24 07:04:16;;;;;;;11.48;10.43;;;;;;;37.83;23.28;99938.84;4991727;28;97686;-83
2022/06/24 07:06:41;;;;;;;10.35;9.40;;;;;;;38.25;22.15;99959.75;4995371;28;96973;-84
2022/06/24 07:09:07;;;;;;;10.50;9.68;;;;;;;37.50;22.81;99934.03;5010979;28;98098;-82
2022/06/24 07:11:33;;;;;;;10.88;10.00;;;;;;;37.27;23.37;99931.25;5012599;28;101075;-86
2022/06/24 07:13:59;;;;;;;10.85;9.80;;;;;;;37.56;22.86;99944.00;5014829;28;96921;-84
2022/06/24 07:16:24;;;;;;;10.40;9.48;;;;;;;37.75;22.69;99917.31;5012341;28;97261;-84
2022/06/24 07:18:51;;;;;;;11.00;10.00;;;;;;;37.56;22.64;99913.91;5004598;28;101113;-85
2022/06/24 07:21:17;;;;;;;10.80;9.85;;;;;;;38.27;22.30;99916.50;4991198;28;100670;-83
2022/06/24 07:23:43;;;;;;;11.25;10.13;;;;;;;37.30;22.71;99939.81;4994205;28;97178;-88
2022/06/24 07:26:08;;;;;;;10.88;10.13;;;;;;;37.26;22.84;99933.13;5011078;28;96833;-82
2022/06/24 07:28:33;;;;;;;13.82;12.63;;;;;;;37.84;22.25;99924.09;5026776;28;97591;-81
2022/06/24 07:30:59;;;;;;;10.43;9.82;;;;;;;38.39;21.92;99911.81;5030321;28;101111;-79
2022/06/24 07:33:24;;;;;;;11.55;10.45;;;;;;;38.46;20.98;99928.97;5029959;28;97245;-80
2022/06/24 07:35:50;;;;;;;11.43;10.52;;;;;;;37.99;21.92;99909.94;5010471;28;97300;-80
2022/06/24 07:38:16;;;;;;;12.10;11.15;;;;;;;38.55;21.21;99920.38;5006371;28;102318;-82
2022/06/24 07:40:42;;;;;;;11.10;10.27;;;;;;;38.12;21.93;99916.22;5006305;28;100977;-82
2022/06/24 07:43:07;;;;;;;11.77;10.70;;;;;;;37.43;22.21;99908.63;4995591;28;97065;-81
2022/06/24 07:45:33;;;;;;;10.80;10.02;;;;;;;37.47;22.71;99907.13;5011198;28;96980;-82
2022/06/24 07:47:59;;;;;;;11.32;10.32;;;;;;;38.00;22.07;99897.91;5012260;28;101626;-82
2022/06/24 07:50:25;;;;;;;10.73;10.00;;;;;;;38.39;21.68;99897.28;5012686;28;101393;-82
2022/06/24 07:52:51;;;;;;;11.30;10.43;;;;;;;39.11;21.24;99902.16;4994712;28;97199;-82
2022/06/24 07:58:00;;;;;;;11.85;10.70;;;;;;;39.19;21.13;99890.75;5002180;28;101433;-83
2022/06/24 08:00:26;;;;;;;11.57;10.38;;;;;;;39.20;20.97;99894.34;4994993;28;101292;-84
2022/06/24 08:02:51;;;;;;;11.32;10.45;;;;;;;39.32;20.69;99881.38;5022737;27;97089;-81
2022/06/24 08:05:17;;;;;;;11.80;10.52;;;;;;;38.80;20.61;99887.06;5017174;28;97448;-83
2022/06/24 08:07:45;;;;;;;11.38;10.38;;;;;;;38.75;20.85;99881.47;4995942;28;101382;-83
2022/06/24 08:10:11;;;;;;;11.52;10.40;;;;;;;38.33;21.57;99881.81;5006091;28;101344;-83
2022/06/24 08:12:36;;;;;;;13.07;10.00;;;;;;;38.05;22.02;99873.34;5024704;28;96995;-82
2022/06/24 08:15:02;;;;;;;10.60;9.65;;;;;;;38.85;21.26;99871.56;5014477;28;97215;-82
2022/06/24 08:17:28;;;;;;;11.10;10.20;;;;;;;39.46;20.70;99860.72;4996009;28;101020;-83
2022/06/24 08:19:53;;;;;;;10.30;9.50;;;;;;;39.81;20.83;99862.28;5011746;28;101360;-82
2022/06/24 08:22:20;;;;;;;11.25;10.05;;;;;;;39.61;20.80;99854.59;4996871;28;97202;-82
2022/06/24 08:24:46;;;;;;;11.07;10.00;;;;;;;39.72;20.64;99853.63;5010717;28;96933;-83
2022/06/24 08:27:12;;;;;;;11.70;10.50;;;;;;;40.04;20.67;99863.94;4995899;28;101336;-84
2022/06/24 08:29:38;;;;;;;11.55;10.00;;;;;;;39.90;20.57;99859.94;5022685;28;97401;-83
2022/06/24 08:32:04;;;;;;;10.77;9.68;;;;;;;39.88;21.21;99851.94;5012473;28;97197;-82
2022/06/24 08:34:30;;;;;;;15.02;10.27;;;;;;;40.70;20.49;99850.91;5007023;28;97418;-85
2022/06/24 08:36:55;;;;;;;11.43;10.43;;;;;;;40.55;20.57;99850.72;5013360;28;97434;-84
2022/06/24 08:39:20;;;;;;;11.60;10.45;;;;;;;40.92;20.08;99866.47;5034666;28;98179;-81
2022/06/24 08:41:47;;;;;;;10.70;9.85;;;;;;;40.03;20.75;99843.88;5009166;28;96877;-81
2022/06/24 08:44:13;;;;;;;11.90;10.27;;;;;;;39.83;20.49;99862.88;5011151;28;97161;-80
2022/06/24 08:46:39;;;;;;;17.17;10.45;;;;;;;39.57;20.93;99845.22;5022282;28;101247;-81
2022/06/24 08:49:04;;;;;;;10.38;9.43;;;;;;;39.46;21.23;99846.16;4994664;28;101582;-81
2022/06/24 08:51:30;;;;;;;10.25;9.45;;;;;;;39.06;21.66;99859.00;4995835;28;97289;-81
2022/06/24 08:53:57;;;;;;;11.15;9.88;;;;;;;38.33;21.79;99825.09;5011117;28;97019;-80
2022/06/24 08:56:23;;;;;;;10.50;9.70;;;;;;;38.21;22.52;99857.19;5006023;28;97513;-81
2022/06/24 08:58:49;;;;;;;11.27;10.15;;;;;;;37.96;22.72;99849.31;5011314;28;97370;-80
2022/06/24 09:01:15;;;;;;;10.27;9.48;;;;;;;37.36;22.80;99845.81;5027345;28;97341;-80
2022/06/24 09:03:43;;;;;;;9.93;9.13;;;;;;;36.52;23.75;99853.31;5010906;28;97220;-80
2022/06/24 09:06:16;;;;;;;9.80;8.85;;;;;;;35.79;24.39;99854.25;5007989;28;98244;-81
2022/06/24 09:08:48;;;;;;;11.60;9.05;;;;;;;34.76;25.91;99841.16;5022228;28;101797;-83
2022/06/24 09:11:14;;;;;;;10.48;9.70;;;;;;;34.64;25.74;99841.88;5026528;28;96954;-84
2022/06/24 09:13:43;;;;;;;10.45;9.55;;;;;;;33.77;26.97;99855.09;5005871;28;97284;-84
2022/06/24 09:16:10;;;;;;;10.07;9.38;;;;;;;34.17;26.46;99844.03;4991517;28;100808;-85
2022/06/24 09:18:36;;;;;;;10.00;9.07;;;;;;;33.39;27.08;99835.91;5043063;27;97431;-86
2022/06/24 09:21:01;;;;;;;9.90;9.10;;;;;;;33.88;26.71;99839.97;5005633;28;97418;-82
2022/06/24 09:23:27;;;;;;;10.18;8.85;;;;;;;33.29;27.41;99846.41;5019289;27;96901;-81
2022/06/24 09:25:57;;;;;;;9.70;8.80;;;;;;;32.84;28.02;99836.16;5012990;28;98345;-88
2022/06/24 09:28:23;;;;;;;;;;;;;;;33.04;28.27;99833.44;5013427;28;102702;-90
2022/06/24 09:30:48;;;;;;;8.60;7.80;;;;;;;33.23;28.58;99830.94;5038580;28;97250;-85
2022/06/24 09:33:17;;;;;;;8.52;7.72;;;;;;;33.36;28.05;99830.88;5014342;28;97147;-83
2022/06/24 09:35:43;;;;;;;9.35;8.20;;;;;;;33.58;27.16;99823.34;5027147;28;98076;-90
2022/06/24 09:38:08;;;;;;;9.25;8.10;;;;;;;33.55;27.38;99827.31;5029112;28;97622;-82
2022/06/24 09:40:34;;;;;;;8.77;8.05;;;;;;;33.32;27.13;99821.50;5012970;28;97646;-80
2022/06/24 09:43:01;;;;;;;10.18;9.18;;;;;;;32.73;28.15;99820.47;4999092;28;97537;-79
2022/06/24 09:45:45;;;;;;;13.43;8.60;;;;;;;32.32;28.24;99816.03;5007783;28;101393;-76
2022/06/24 09:48:32;;;;;;;12.45;8.85;;;;;;;31.88;29.19;99806.44;5034847;27;97627;-77
2022/06/24 09:51:02;;;;;;;9.57;8.60;;;;;;;31.18;30.51;99826.50;5024689;27;96967;-76
2022/06/24 09:53:29;;;;;;;12.73;8.48;;;;;;;30.91;31.01;99810.03;5002282;28;97210;-76
2022/06/24 09:55:55;;;;;;;14.20;8.90;;;;;;;30.78;31.26;99802.63;5015427;28;98149;-82
2022/06/24 09:58:21;;;;;;;8.90;8.05;;;;;;;30.82;31.30;99803.94;5009041;28;100667;-81
2022/06/24 10:00:48;;;;;;;9.05;8.15;;;;;;;30.89;31.52;99812.97;5027650;28;98685;-81
2022/06/24 10:03:14;;;;;;;9.57;8.60;;;;;;;30.93;30.49;99823.41;5010824;28;96914;-81
2022/06/24 10:05:44;;;;;;;8.88;8.07;;;;;;;30.67;31.40;99809.41;5017167;27;98007;-80
2022/06/24 10:08:13;;;;;;;10.05;8.05;;;;;;;30.10;32.41;99796.75;5007528;28;101195;-80
2022/06/24 10:10:48;;;;;;;8.93;7.68;;;;;;;30.09;32.22;99815.88;4980605;28;96761;-79
2022/06/24 10:13:22;;;;;;;8.73;7.85;;;;;;;30.20;31.45;99815.38;5012724;28;96774;-81
2022/06/24 10:15:48;;;;;;;8.65;6.93;;;;;;;30.01;31.85;99823.06;4983524;28;101078;-81
2022/06/24 10:18:15;;;;;;;8.23;7.32;;;;;;;29.98;32.01;99800.97;4987991;28;101147;-82
2022/06/24 10:20:42;;;;;;;8.27;7.40;;;;;;;29.83;32.20;99805.59;4991809;28;97292;-81
2022/06/24 10:23:07;;;;;;;9.95;7.35;;;;;;;29.85;32.11;99790.03;5001679;28;97782;-80
2022/06/24 10:25:48;;;;;;;10.43;7.75;;;;;;;29.76;31.58;99811.75;5024547;28;98181;-80
2022/06/24 10:28:14;;;;;;;9.90;7.75;;;;;;;29.58;32.20;99791.50;5012699;28;98422;-81
2022/06/24 10:30:39;;;;;;;8.23;7.53;;;;;;;29.73;32.53;99803.16;4992868;28;97069;-80
2022/06/24 10:33:15;;;;;;;9.07;7.65;;;;;;;29.75;32.59;99793.84;5031205;28;97421;-80
2022/06/24 10:36:03;;;;;;;7.20;6.72;;;;;;;29.71;32.31;99786.31;5012042;28;97388;-79
2022/06/24 10:38:39;;;;;;;8.55;7.28;;;;;;;29.72;32.53;99786.09;4998040;28;99684;-80
2022/06/24 10:41:06;;;;;;;10.30;7.78;;;;;;;29.75;31.65;99765.97;5001889;28;97666;-80
2022/06/24 10:43:42;;;;;;;8.05;7.40;;;;;;;29.71;31.19;99780.91;5000045;28;98047;-80
2022/06/24 10:46:10;;;;;;;8.13;7.43;;;;;;;29.64;31.53;99796.19;5034150;27;97565;-79
2022/06/24 10:48:51;;;;;;;8.80;8.00;;;;;;;29.41;31.83;99780.91;5028507;28;102621;-79
2022/06/24 10:51:18;;;;;;;;;;;;;;;29.30;31.66;99765.16;5018050;28;96814;-80
2022/06/24 10:54:02;;;;;;;8.90;8.20;;;;;;;29.34;31.70;99788.06;5023374;28;96802;-88
2022/06/24 10:56:59;;;;;;;8.50;7.80;;;;;;;29.29;31.79;99779.69;5032250;28;98192;-87
2022/06/24 10:59:25;;;;;;;7.88;7.07;;;;;;;29.22;31.25;99743.63;4987202;28;100801;-87
2022/06/24 11:01:50;;;;;;;8.50;7.72;;;;;;;29.24;31.50;99737.00;5004774;28;97049;-86
2022/06/24 11:04:22;;;;;;;8.35;7.45;;;;;;;29.31;31.91;99756.00;5027177;28;97187;-85
2022/06/24 11:07:10;;;;;;;10.07;7.63;;;;;;;29.30;31.76;99749.78;5027547;28;98019;-86
2022/06/24 11:09:36;;;;;;;10.00;7.55;;;;;;;29.40;31.58;99752.19;5014636;28;101353;-85
2022/06/24 11:12:06;;;;;;;8.20;7.43;;;;;;;29.33;31.63;99752.09;5021224;28;98361;-87
2022/06/24 11:14:33;;;;;;;;;;;;;;;29.23;31.77;99748.00;5008538;28;96888;-87
2022/06/24 11:17:06;;;;;;;11.00;8.02;;;;;;;29.18;32.02;99726.13;5002676;28;101575;-86
2022/06/24 11:19:38;;;;;;;10.35;8.10;;;;;;;29.28;31.88;99723.97;5011176;28;100937;-86
2022/06/24 11:22:04;;;;;;;9.00;8.30;;;;;;;29.24;32.19;99736.19;5022900;28;97757;-86
2022/06/24 11:24:30;;;;;;;8.70;7.45;;;;;;;29.03;32.29;99704.50;5010788;28;97440;-86
2022/06/24 11:27:06;;;;;;;13.80;8.45;;;;;;;29.17;32.01;99714.47;5028771;28;97124;-87
2022/06/24 11:29:51;;;;;;;9.23;8.32;;;;;;;29.25;31.76;99729.75;5014350;28;100897;-88